sensor_id;sensor_type;location;lat;lon;timestamp;pressure;altitude;pressure_sealevel;temperature;humidity
76519;BME280;67029;51.054;13.798;2024-03-23T00:54:28;99544.56;;;14.65;52.85
76519;BME280;67029;51.054;13.798;2024-03-23T00:56:58;99539.31;;;14.54;53.01
76519;BME280;67029;51.054;13.798;2024-03-23T00:59:28;99537.14;;;14.45;53.13
76519;BME280;67029;51.054;13.798;2024-03-23T01:01:58;99548.86;;;14.39;53.20
76519;BME280;67029;51.054;13.798;2024-03-23T01:04:28;99545.53;;;14.25;53.53
76519;BME280;67029;51.054;13.798;2024-03-23T01:06:59;99549.77;;;14.23;53.46
76519;BME280;67029;51.054;13.798;2024-03-23T01:09:29;99548.77;;;14.21;53.50
76519;BME280;67029;51.054;13.798;2024-03-23T01:11:59;99555.03;;;14.19;53.55
76519;BME280;67029;51.054;13.798;2024-03-23T01:14:29;99546.37;;;14.20;53.60
76519;BME280;67029;51.054;13.798;2024-03-23T01:16:59;99546.00;;;14.10;53.86
76519;BME280;67029;51.054;13.798;2024-03-23T01:19:29;99540.52;;;14.11;54.20
76519;BME280;67029;51.054;13.798;2024-03-23T01:21:59;99527.95;;;14.12;54.16
76519;BME280;67029;51.054;13.798;2024-03-23T01:24:29;99515.73;;;14.14;53.96
76519;BME280;67029;51.054;13.798;2024-03-23T01:26:59;99509.06;;;14.18;54.18
76519;BME280;67029;51.054;13.798;2024-03-23T01:29:29;99510.86;;;14.20;53.98
76519;BME280;67029;51.054;13.798;2024-03-23T01:31:59;99513.50;;;14.15;53.92
76519;BME280;67029;51.054;13.798;2024-03-23T01:34:29;99510.03;;;14.10;53.99
76519;BME280;67029;51.054;13.798;2024-03-23T01:36:59;99519.59;;;14.12;54.25
76519;BME280;67029;51.054;13.798;2024-03-23T01:39:29;99510.19;;;14.09;54.03
76519;BME280;67029;51.054;13.798;2024-03-23T01:41:59;99509.88;;;14.02;54.11
76519;BME280;67029;51.054;13.798;2024-03-23T01:44:29;99508.38;;;13.97;54.23
76519;BME280;67029;51.054;13.798;2024-03-23T01:46:59;99497.10;;;13.94;54.50
76519;BME280;67029;51.054;13.798;2024-03-23T01:49:29;99494.38;;;13.90;54.57
76519;BME280;67029;51.054;13.798;2024-03-23T01:51:59;99488.67;;;13.87;54.76
76519;BME280;67029;51.054;13.798;2024-03-23T01:54:30;99486.38;;;13.89;55.04
76519;BME280;67029;51.054;13.798;2024-03-23T01:57:00;99487.44;;;13.92;54.85
76519;BME280;67029;51.054;13.798;2024-03-23T01:59:30;99489.22;;;13.90;54.93
76519;BME280;67029;51.054;13.798;2024-03-23T02:02:00;99486.42;;;13.85;55.02
76519;BME280;67029;51.054;13.798;2024-03-23T02:04:30;99481.62;;;13.78;55.40
76519;BME280;67029;51.054;13.798;2024-03-23T02:07:00;99473.75;;;13.78;55.61
76519;BME280;67029;51.054;13.798;2024-03-23T02:09:30;99473.10;;;13.85;55.54
76519;BME280;67029;51.054;13.798;2024-03-23T02:12:01;99471.66;;;13.89;55.38
76519;BME280;67029;51.054;13.798;2024-03-23T02:14:30;99467.16;;;13.91;55.29
76519;BME280;67029;51.054;13.798;2024-03-23T02:17:00;99466.05;;;13.93;55.32
76519;BME280;67029;51.054;13.798;2024-03-23T02:19:30;99461.44;;;13.94;55.31
76519;BME280;67029;51.054;13.798;2024-03-23T02:22:01;99448.54;;;13.96;55.47
76519;BME280;67029;51.054;13.798;2024-03-23T02:24:31;99445.84;;;14.02;55.40
76519;BME280;67029;51.054;13.798;2024-03-23T02:27:02;99449.79;;;14.03;55.32
76519;BME280;67029;51.054;13.798;2024-03-23T02:29:31;99444.81;;;13.98;55.46
76519;BME280;67029;51.054;13.798;2024-03-23T02:32:01;99433.14;;;13.98;55.85
76519;BME280;67029;51.054;13.798;2024-03-23T02:34:31;99432.75;;;14.02;55.77
76519;BME280;67029;51.054;13.798;2024-03-23T02:37:01;99430.18;;;14.02;55.65
76519;BME280;67029;51.054;13.798;2024-03-23T02:39:31;99421.73;;;14.05;55.68
76519;BME280;67029;51.054;13.798;2024-03-23T02:42:01;99423.05;;;14.08;55.62
76519;BME280;67029;51.054;13.798;2024-03-23T02:44:31;99422.71;;;14.12;55.66
76519;BME280;67029;51.054;13.798;2024-03-23T02:47:01;99419.32;;;14.18;55.85
76519;BME280;67029;51.054;13.798;2024-03-23T02:49:31;99420.42;;;14.24;55.88
76519;BME280;67029;51.054;13.798;2024-03-23T02:52:01;99415.58;;;14.28;55.64
76519;BME280;67029;51.054;13.798;2024-03-23T02:54:31;99405.42;;;14.29;55.54
76519;BME280;67029;51.054;13.798;2024-03-23T02:57:01;99412.22;;;14.33;55.96
76519;BME280;67029;51.054;13.798;2024-03-23T02:59:31;99415.84;;;14.35;55.90
76519;BME280;67029;51.054;13.798;2024-03-23T03:02:01;99412.58;;;14.37;55.96
76519;BME280;67029;51.054;13.798;2024-03-23T03:04:31;99418.73;;;14.37;56.08
76519;BME280;67029;51.054;13.798;2024-03-23T03:07:01;99409.19;;;14.38;56.17
76519;BME280;67029;51.054;13.798;2024-03-23T03:09:31;99400.03;;;14.36;55.75
76519;BME280;67029;51.054;13.798;2024-03-23T03:12:01;99398.48;;;14.34;55.92
76519;BME280;67029;51.054;13.798;2024-03-23T03:14:31;99393.57;;;14.35;55.92
76519;BME280;67029;51.054;13.798;2024-03-23T03:17:01;99385.44;;;14.27;55.80
76519;BME280;67029;51.054;13.798;2024-03-23T03:19:31;99386.66;;;14.27;55.95
76519;BME280;67029;51.054;13.798;2024-03-23T03:22:01;99374.34;;;14.27;55.88
76519;BME280;67029;51.054;13.798;2024-03-23T03:24:31;99366.40;;;14.28;55.94
76519;BME280;67029;51.054;13.798;2024-03-23T03:27:01;99371.50;;;14.33;56.40
76519;BME280;67029;51.054;13.798;2024-03-23T03:29:31;99376.55;;;14.37;56.69
76519;BME280;67029;51.054;13.798;2024-03-23T03:32:05;99375.91;;;14.37;56.26
76519;BME280;67029;51.054;13.798;2024-03-23T03:34:32;99373.44;;;14.33;56.22
76519;BME280;67029;51.054;13.798;2024-03-23T03:37:02;99369.12;;;14.33;56.36
76519;BME280;67029;51.054;13.798;2024-03-23T03:39:32;99371.02;;;14.33;56.54
76519;BME280;67029;51.054;13.798;2024-03-23T03:42:02;99369.15;;;14.33;56.51
76519;BME280;67029;51.054;13.798;2024-03-23T03:44:32;99367.34;;;14.31;56.53
76519;BME280;67029;51.054;13.798;2024-03-23T03:47:02;99357.84;;;14.29;56.49
76519;BME280;67029;51.054;13.798;2024-03-23T03:49:32;99355.42;;;14.28;56.48
76519;BME280;67029;51.054;13.798;2024-03-23T03:52:03;99362.12;;;14.28;56.60
76519;BME280;67029;51.054;13.798;2024-03-23T03:54:33;99354.41;;;14.29;56.54
76519;BME280;67029;51.054;13.798;2024-03-23T03:57:03;99346.62;;;14.27;56.49
76519;BME280;67029;51.054;13.798;2024-03-23T03:59:33;99332.55;;;14.27;56.48
76519;BME280;67029;51.054;13.798;2024-03-23T04:02:03;99331.55;;;14.20;56.32
76519;BME280;67029;51.054;13.798;2024-03-23T04:04:33;99335.71;;;14.16;56.54
76519;BME280;67029;51.054;13.798;2024-03-23T04:07:03;99329.91;;;14.11;56.54
76519;BME280;67029;51.054;13.798;2024-03-23T04:09:33;99328.02;;;14.04;56.64
76519;BME280;67029;51.054;13.798;2024-03-23T04:12:04;99325.02;;;14.01;56.74
76519;BME280;67029;51.054;13.798;2024-03-23T04:14:34;99320.42;;;14.00;56.80
76519;BME280;67029;51.054;13.798;2024-03-23T04:17:04;99314.06;;;13.93;56.64
76519;BME280;67029;51.054;13.798;2024-03-23T04:19:34;99314.64;;;13.89;56.71
76519;BME280;67029;51.054;13.798;2024-03-23T04:22:04;99308.52;;;13.87;56.69
76519;BME280;67029;51.054;13.798;2024-03-23T04:24:34;99304.54;;;13.81;56.86
76519;BME280;67029;51.054;13.798;2024-03-23T04:27:04;99301.30;;;13.75;56.80
76519;BME280;67029;51.054;13.798;2024-03-23T04:29:34;99305.27;;;13.60;56.97
76519;BME280;67029;51.054;13.798;2024-03-23T04:32:05;99294.05;;;13.36;57.20
76519;BME280;67029;51.054;13.798;2024-03-23T04:34:35;99287.16;;;13.28;57.73
76519;BME280;67029;51.054;13.798;2024-03-23T04:37:05;99276.90;;;13.19;58.12
76519;BME280;67029;51.054;13.798;2024-03-23T04:39:38;99272.45;;;12.91;58.67
76519;BME280;67029;51.054;13.798;2024-03-23T04:42:06;99277.09;;;12.72;59.33
76519;BME280;67029;51.054;13.798;2024-03-23T04:44:36;99278.91;;;12.62;59.30
76519;BME280;67029;51.054;13.798;2024-03-23T04:47:06;99275.73;;;12.70;59.14
76519;BME280;67029;51.054;13.798;2024-03-23T04:49:36;99270.91;;;12.78;59.07
76519;BME280;67029;51.054;13.798;2024-03-23T04:52:06;99274.17;;;12.86;59.15
76519;BME280;67029;51.054;13.798;2024-03-23T04:54:36;99264.55;;;12.87;58.77
76519;BME280;67029;51.054;13.798;2024-03-23T04:57:06;99246.26;;;12.89;58.84
76519;BME280;67029;51.054;13.798;2024-03-23T04:59:36;99231.16;;;12.91;58.75
76519;BME280;67029;51.054;13.798;2024-03-23T05:02:06;99217.52;;;12.91;58.82
76519;BME280;67029;51.054;13.798;2024-03-23T05:04:36;99203.94;;;12.63;59.06
76519;BME280;67029;51.054;13.798;2024-03-23T05:07:06;99197.45;;;12.37;60.37
76519;BME280;67029;51.054;13.798;2024-03-23T05:09:36;99195.64;;;12.44;60.75
76519;BME280;67029;51.054;13.798;2024-03-23T05:12:07;99205.05;;;12.50;60.35
76519;BME280;67029;51.054;13.798;2024-03-23T05:14:36;99193.23;;;12.47;59.65
76519;BME280;67029;51.054;13.798;2024-03-23T05:17:06;99187.22;;;12.49;59.80
76519;BME280;67029;51.054;13.798;2024-03-23T05:19:36;99191.23;;;12.51;60.21
76519;BME280;67029;51.054;13.798;2024-03-23T05:22:07;99191.38;;;12.51;59.72
76519;BME280;67029;51.054;13.798;2024-03-23T05:24:36;99187.81;;;12.52;59.66
76519;BME280;67029;51.054;13.798;2024-03-23T05:27:06;99178.86;;;12.53;59.59
76519;BME280;67029;51.054;13.798;2024-03-23T05:29:36;99175.77;;;12.56;59.55
76519;BME280;67029;51.054;13.798;2024-03-23T05:32:07;99161.34;;;12.59;59.35
76519;BME280;67029;51.054;13.798;2024-03-23T05:34:37;99166.28;;;12.60;59.34
76519;BME280;67029;51.054;13.798;2024-03-23T05:37:07;99170.04;;;12.68;59.25
76519;BME280;67029;51.054;13.798;2024-03-23T05:39:39;99163.58;;;12.73;59.14
76519;BME280;67029;51.054;13.798;2024-03-23T05:42:07;99159.61;;;12.80;59.21
76519;BME280;67029;51.054;13.798;2024-03-23T05:44:37;99154.56;;;12.81;59.12
76519;BME280;67029;51.054;13.798;2024-03-23T05:47:07;99156.92;;;12.76;59.29
76519;BME280;67029;51.054;13.798;2024-03-23T05:49:37;99147.48;;;12.77;59.64
76519;BME280;67029;51.054;13.798;2024-03-23T05:52:08;99154.02;;;12.81;59.32
76519;BME280;67029;51.054;13.798;2024-03-23T05:54:38;99154.52;;;12.84;59.53
76519;BME280;67029;51.054;13.798;2024-03-23T05:57:08;99150.03;;;12.86;59.54
76519;BME280;67029;51.054;13.798;2024-03-23T05:59:39;99146.83;;;12.92;59.26
76519;BME280;67029;51.054;13.798;2024-03-23T06:02:09;99135.89;;;12.87;58.95
76519;BME280;67029;51.054;13.798;2024-03-23T06:04:39;99124.91;;;12.87;59.25
76519;BME280;67029;51.054;13.798;2024-03-23T06:07:09;99117.59;;;12.92;59.16
76519;BME280;67029;51.054;13.798;2024-03-23T06:09:39;99112.06;;;12.98;59.15
76519;BME280;67029;51.054;13.798;2024-03-23T06:12:09;99111.52;;;13.03;59.07
76519;BME280;67029;51.054;13.798;2024-03-23T06:14:39;99096.77;;;13.07;58.98
76519;BME280;67029;51.054;13.798;2024-03-23T06:17:09;99085.08;;;13.10;58.96
76519;BME280;67029;51.054;13.798;2024-03-23T06:19:39;99075.47;;;13.09;59.03
76519;BME280;67029;51.054;13.798;2024-03-23T06:22:09;99070.96;;;13.04;58.80
76519;BME280;67029;51.054;13.798;2024-03-23T06:24:39;99071.87;;;12.86;59.15
76519;BME280;67029;51.054;13.798;2024-03-23T06:27:09;99072.90;;;12.74;59.61
76519;BME280;67029;51.054;13.798;2024-03-23T06:29:39;99069.72;;;12.79;59.91
76519;BME280;67029;51.054;13.798;2024-03-23T06:32:09;99064.77;;;12.84;59.93
76519;BME280;67029;51.054;13.798;2024-03-23T06:34:41;99057.99;;;12.80;59.71
76519;BME280;67029;51.054;13.798;2024-03-23T06:37:09;99050.86;;;12.88;59.74
76519;BME280;67029;51.054;13.798;2024-03-23T06:39:39;99040.78;;;12.78;59.63
76519;BME280;67029;51.054;13.798;2024-03-23T06:42:09;99034.17;;;12.78;59.65
76519;BME280;67029;51.054;13.798;2024-03-23T06:44:39;99024.24;;;12.84;60.00
76519;BME280;67029;51.054;13.798;2024-03-23T06:47:09;99019.08;;;12.88;60.01
76519;BME280;67029;51.054;13.798;2024-03-23T06:49:39;99006.47;;;12.89;60.12
76519;BME280;67029;51.054;13.798;2024-03-23T06:52:09;99007.72;;;12.94;60.03
76519;BME280;67029;51.054;13.798;2024-03-23T06:54:39;99010.20;;;12.97;60.11
76519;BME280;67029;51.054;13.798;2024-03-23T06:57:09;99004.05;;;12.92;59.82
76519;BME280;67029;51.054;13.798;2024-03-23T06:59:39;99000.25;;;12.92;59.97
76519;BME280;67029;51.054;13.798;2024-03-23T07:02:09;98999.20;;;12.94;59.91
76519;BME280;67029;51.054;13.798;2024-03-23T07:04:39;99002.32;;;12.99;60.07
76519;BME280;67029;51.054;13.798;2024-03-23T07:07:09;98998.96;;;12.81;60.32
76519;BME280;67029;51.054;13.798;2024-03-23T07:09:39;98999.72;;;12.67;60.80
76519;BME280;67029;51.054;13.798;2024-03-23T07:12:09;99010.34;;;12.53;61.03
76519;BME280;67029;51.054;13.798;2024-03-23T07:14:39;99007.41;;;12.61;60.93
76519;BME280;67029;51.054;13.798;2024-03-23T07:17:09;99009.88;;;12.69;60.84
76519;BME280;67029;51.054;13.798;2024-03-23T07:19:39;99011.02;;;12.43;61.56
76519;BME280;67029;51.054;13.798;2024-03-23T07:22:09;99006.11;;;12.41;61.38
76519;BME280;67029;51.054;13.798;2024-03-23T07:24:40;98984.25;;;12.49;61.43
76519;BME280;67029;51.054;13.798;2024-03-23T07:27:10;98967.97;;;12.57;61.15
76519;BME280;67029;51.054;13.798;2024-03-23T07:29:40;98962.05;;;12.70;61.52
76519;BME280;67029;51.054;13.798;2024-03-23T07:32:10;98964.36;;;12.83;61.33
76519;BME280;67029;51.054;13.798;2024-03-23T07:34:40;98967.11;;;12.92;61.03
76519;BME280;67029;51.054;13.798;2024-03-23T07:37:10;98954.69;;;12.96;60.67
76519;BME280;67029;51.054;13.798;2024-03-23T07:39:40;98939.03;;;12.98;60.59
76519;BME280;67029;51.054;13.798;2024-03-23T07:42:10;98921.72;;;13.04;60.67
76519;BME280;67029;51.054;13.798;2024-03-23T07:44:40;98926.19;;;13.10;60.56
76519;BME280;67029;51.054;13.798;2024-03-23T07:47:10;98916.97;;;13.14;60.55
76519;BME280;67029;51.054;13.798;2024-03-23T07:49:40;98912.39;;;13.24;60.68
76519;BME280;67029;51.054;13.798;2024-03-23T07:52:10;98902.77;;;13.32;60.49
76519;BME280;67029;51.054;13.798;2024-03-23T07:54:40;98900.03;;;13.37;60.26
76519;BME280;67029;51.054;13.798;2024-03-23T07:57:10;98899.71;;;13.44;60.16
76519;BME280;67029;51.054;13.798;2024-03-23T07:59:40;98888.96;;;13.53;60.07
76519;BME280;67029;51.054;13.798;2024-03-23T08:02:10;98884.80;;;13.62;59.93
76519;BME280;67029;51.054;13.798;2024-03-23T08:04:40;98874.11;;;13.72;59.84
76519;BME280;67029;51.054;13.798;2024-03-23T08:07:10;98866.34;;;13.83;59.83
76519;BME280;67029;51.054;13.798;2024-03-23T08:09:40;98859.98;;;13.91;59.62
76519;BME280;67029;51.054;13.798;2024-03-23T08:12:10;98865.34;;;14.00;59.60
76519;BME280;67029;51.054;13.798;2024-03-23T08:14:40;98856.53;;;14.09;59.46
76519;BME280;67029;51.054;13.798;2024-03-23T08:17:10;98850.74;;;14.16;59.20
76519;BME280;67029;51.054;13.798;2024-03-23T08:19:40;98847.16;;;14.23;59.06
76519;BME280;67029;51.054;13.798;2024-03-23T08:22:11;98836.17;;;14.30;58.95
76519;BME280;67029;51.054;13.798;2024-03-23T08:24:41;98832.08;;;14.35;58.82
76519;BME280;67029;51.054;13.798;2024-03-23T08:27:11;98827.95;;;14.41;58.74
76519;BME280;67029;51.054;13.798;2024-03-23T08:29:41;98823.43;;;14.49;58.71
76519;BME280;67029;51.054;13.798;2024-03-23T08:32:11;98816.15;;;14.59;58.64
76519;BME280;67029;51.054;13.798;2024-03-23T08:34:41;98817.94;;;14.69;58.55
76519;BME280;67029;51.054;13.798;2024-03-23T08:37:11;98808.11;;;14.78;58.30
76519;BME280;67029;51.054;13.798;2024-03-23T08:39:43;98802.57;;;14.89;58.13
76519;BME280;67029;51.054;13.798;2024-03-23T08:42:11;98803.68;;;14.98;57.97
76519;BME280;67029;51.054;13.798;2024-03-23T08:44:41;98811.65;;;15.08;57.65
76519;BME280;67029;51.054;13.798;2024-03-23T08:47:11;98815.08;;;15.13;57.28
76519;BME280;67029;51.054;13.798;2024-03-23T08:49:42;98811.20;;;15.13;56.98
76519;BME280;67029;51.054;13.798;2024-03-23T08:52:12;98821.05;;;15.12;57.00
76519;BME280;67029;51.054;13.798;2024-03-23T08:54:41;98818.26;;;15.13;57.16
76519;BME280;67029;51.054;13.798;2024-03-23T08:57:12;98822.05;;;15.15;57.18
76519;BME280;67029;51.054;13.798;2024-03-23T08:59:42;98818.39;;;15.18;57.22
76519;BME280;67029;51.054;13.798;2024-03-23T09:02:12;98811.44;;;15.19;57.11
76519;BME280;67029;51.054;13.798;2024-03-23T09:04:42;98827.33;;;15.15;57.27
76519;BME280;67029;51.054;13.798;2024-03-23T09:07:12;98809.45;;;15.17;57.11
76519;BME280;67029;51.054;13.798;2024-03-23T09:09:42;98813.86;;;14.97;57.27
76519;BME280;67029;51.054;13.798;2024-03-23T09:12:12;98815.25;;;14.91;57.70
76519;BME280;67029;51.054;13.798;2024-03-23T09:14:45;98820.02;;;15.03;57.69
76519;BME280;67029;51.054;13.798;2024-03-23T09:17:13;98815.99;;;15.15;57.48
76519;BME280;67029;51.054;13.798;2024-03-23T09:19:43;98813.27;;;15.26;57.35
76519;BME280;67029;51.054;13.798;2024-03-23T09:22:13;98816.87;;;15.37;57.18
76519;BME280;67029;51.054;13.798;2024-03-23T09:24:43;98822.94;;;15.44;57.06
76519;BME280;67029;51.054;13.798;2024-03-23T09:27:13;98809.25;;;15.54;56.86
76519;BME280;67029;51.054;13.798;2024-03-23T09:29:43;98815.14;;;15.58;56.80
76519;BME280;67029;51.054;13.798;2024-03-23T09:32:13;98817.95;;;15.64;56.87
76519;BME280;67029;51.054;13.798;2024-03-23T09:34:43;98820.05;;;15.62;56.62
76519;BME280;67029;51.054;13.798;2024-03-23T09:37:13;98831.91;;;15.55;56.59
76519;BME280;67029;51.054;13.798;2024-03-23T09:39:43;98826.89;;;15.44;56.31
76519;BME280;67029;51.054;13.798;2024-03-23T09:42:13;98839.88;;;15.43;56.29
76519;BME280;67029;51.054;13.798;2024-03-23T09:44:44;98868.79;;;15.42;56.22
76519;BME280;67029;51.054;13.798;2024-03-23T09:47:14;98869.06;;;15.46;56.18
76519;BME280;67029;51.054;13.798;2024-03-23T09:49:44;98889.77;;;15.39;56.18
76519;BME280;67029;51.054;13.798;2024-03-23T09:52:14;98897.72;;;15.32;56.76
76519;BME280;67029;51.054;13.798;2024-03-23T09:54:44;98898.11;;;15.15;57.24
76519;BME280;67029;51.054;13.798;2024-03-23T09:57:14;98929.83;;;15.15;57.50
76519;BME280;67029;51.054;13.798;2024-03-23T09:59:45;98960.56;;;15.05;57.32
76519;BME280;67029;51.054;13.798;2024-03-23T10:02:15;98978.14;;;14.76;56.77
76519;BME280;67029;51.054;13.798;2024-03-23T10:04:45;98974.75;;;14.45;56.46
76519;BME280;67029;51.054;13.798;2024-03-23T10:07:18;99001.53;;;14.09;56.38
76519;BME280;67029;51.054;13.798;2024-03-23T10:09:46;99010.44;;;13.87;56.80
76519;BME280;67029;51.054;13.798;2024-03-23T10:12:17;99047.95;;;13.67;57.00
76519;BME280;67029;51.054;13.798;2024-03-23T10:14:47;99058.69;;;13.51;57.06
76519;BME280;67029;51.054;13.798;2024-03-23T10:17:21;99076.98;;;13.31;56.76
76519;BME280;67029;51.054;13.798;2024-03-23T10:19:49;99099.22;;;13.03;56.75
76519;BME280;67029;51.054;13.798;2024-03-23T10:22:19;99117.59;;;12.94;56.47
76519;BME280;67029;51.054;13.798;2024-03-23T10:24:49;99132.84;;;12.84;56.19
76519;BME280;67029;51.054;13.798;2024-03-23T10:27:20;99133.40;;;12.60;55.57
76519;BME280;67029;51.054;13.798;2024-03-23T10:29:49;99158.27;;;12.44;55.14
76519;BME280;67029;51.054;13.798;2024-03-23T10:32:19;99170.36;;;12.34;54.97
76519;BME280;67029;51.054;13.798;2024-03-23T10:34:50;99185.02;;;12.23;55.01
76519;BME280;67029;51.054;13.798;2024-03-23T10:37:19;99209.05;;;12.11;54.67
76519;BME280;67029;51.054;13.798;2024-03-23T10:39:50;99222.30;;;11.91;55.01
76519;BME280;67029;51.054;13.798;2024-03-23T10:42:20;99240.66;;;11.71;55.49
76519;BME280;67029;51.054;13.798;2024-03-23T10:44:53;99271.48;;;11.59;56.07
76519;BME280;67029;51.054;13.798;2024-03-23T10:47:21;99278.38;;;11.32;56.62
76519;BME280;67029;51.054;13.798;2024-03-23T10:49:51;99291.27;;;11.16;56.88
76519;BME280;67029;51.054;13.798;2024-03-23T10:52:24;99298.73;;;11.10;57.04
76519;BME280;67029;51.054;13.798;2024-03-23T10:54:52;99320.51;;;11.01;57.17
76519;BME280;67029;51.054;13.798;2024-03-23T10:57:28;99337.20;;;10.94;57.19
76519;BME280;67029;51.054;13.798;2024-03-23T10:59:53;99355.10;;;10.92;56.99
76519;BME280;67029;51.054;13.798;2024-03-23T11:02:23;99367.41;;;10.73;57.16
76519;BME280;67029;51.054;13.798;2024-03-23T11:04:53;99358.38;;;10.49;57.89
76519;BME280;67029;51.054;13.798;2024-03-23T11:07:31;99359.08;;;10.40;58.04
76519;BME280;67029;51.054;13.798;2024-03-23T11:09:54;99383.81;;;10.37;58.66
76519;BME280;67029;51.054;13.798;2024-03-23T11:12:27;99368.66;;;10.42;58.37
76519;BME280;67029;51.054;13.798;2024-03-23T11:15:04;99367.74;;;10.47;59.24
76519;BME280;67029;51.054;13.798;2024-03-23T11:17:26;99370.89;;;10.52;59.28
76519;BME280;67029;51.054;13.798;2024-03-23T11:20:02;99374.33;;;10.53;59.55
76519;BME280;67029;51.054;13.798;2024-03-23T11:22:41;99363.14;;;10.63;59.50
76519;BME280;67029;51.054;13.798;2024-03-23T11:24:55;99373.08;;;10.73;59.62
76519;BME280;67029;51.054;13.798;2024-03-23T11:27:25;99371.08;;;10.78;59.24
76519;BME280;67029;51.054;13.798;2024-03-23T11:30:13;99364.95;;;10.87;58.95
76519;BME280;67029;51.054;13.798;2024-03-23T11:32:26;99376.94;;;10.93;58.61
76519;BME280;67029;51.054;13.798;2024-03-23T11:34:56;99385.07;;;10.92;58.57
76519;BME280;67029;51.054;13.798;2024-03-23T11:37:26;99392.08;;;10.93;58.41
76519;BME280;67029;51.054;13.798;2024-03-23T11:39:56;99403.56;;;10.88;58.25
76519;BME280;67029;51.054;13.798;2024-03-23T11:42:26;99418.02;;;10.85;58.41
76519;BME280;67029;51.054;13.798;2024-03-23T11:44:56;99421.59;;;10.87;58.21
76519;BME280;67029;51.054;13.798;2024-03-23T11:47:26;99430.76;;;10.88;57.86
76519;BME280;67029;51.054;13.798;2024-03-23T11:49:56;99441.34;;;10.82;57.90
76519;BME280;67029;51.054;13.798;2024-03-23T11:52:26;99443.62;;;10.73;58.05
76519;BME280;67029;51.054;13.798;2024-03-23T11:55:04;99439.23;;;10.64;58.31
76519;BME280;67029;51.054;13.798;2024-03-23T11:57:26;99434.12;;;10.56;58.53
76519;BME280;67029;51.054;13.798;2024-03-23T11:59:56;99441.31;;;10.56;58.82
76519;BME280;67029;51.054;13.798;2024-03-23T12:02:26;99444.87;;;10.53;58.74
76519;BME280;67029;51.054;13.798;2024-03-23T12:04:56;99444.82;;;10.66;58.70
76519;BME280;67029;51.054;13.798;2024-03-23T12:07:26;99430.12;;;10.63;58.51
76519;BME280;67029;51.054;13.798;2024-03-23T12:10:03;99430.70;;;10.60;58.09
76519;BME280;67029;51.054;13.798;2024-03-23T12:12:27;99438.69;;;10.59;58.27
76519;BME280;67029;51.054;13.798;2024-03-23T12:15:05;99433.80;;;10.50;58.22
76519;BME280;67029;51.054;13.798;2024-03-23T12:17:28;99429.14;;;10.37;58.21
76519;BME280;67029;51.054;13.798;2024-03-23T12:19:58;99424.45;;;10.40;58.33
76519;BME280;67029;51.054;13.798;2024-03-23T12:22:28;99429.66;;;10.47;58.53
76519;BME280;67029;51.054;13.798;2024-03-23T12:24:58;99429.14;;;10.56;58.40
76519;BME280;67029;51.054;13.798;2024-03-23T12:27:28;99437.20;;;10.51;58.36
76519;BME280;67029;51.054;13.798;2024-03-23T12:29:58;99436.25;;;10.59;58.07
76519;BME280;67029;51.054;13.798;2024-03-23T12:32:28;99445.84;;;10.60;58.13
76519;BME280;67029;51.054;13.798;2024-03-23T12:34:58;99434.46;;;10.56;57.14
76519;BME280;67029;51.054;13.798;2024-03-23T12:37:28;99438.86;;;10.56;57.46
76519;BME280;67029;51.054;13.798;2024-03-23T12:39:58;99432.67;;;10.66;57.07
76519;BME280;67029;51.054;13.798;2024-03-23T12:42:28;99430.99;;;10.59;56.76
76519;BME280;67029;51.054;13.798;2024-03-23T12:44:58;99418.61;;;10.79;56.53
76519;BME280;67029;51.054;13.798;2024-03-23T12:47:30;99416.46;;;10.92;56.63
76519;BME280;67029;51.054;13.798;2024-03-23T12:49:58;99438.83;;;11.19;55.99
76519;BME280;67029;51.054;13.798;2024-03-23T12:52:28;99446.98;;;11.29;55.61
76519;BME280;67029;51.054;13.798;2024-03-23T12:54:58;99454.92;;;11.37;54.91
76519;BME280;67029;51.054;13.798;2024-03-23T12:57:28;99466.16;;;11.32;54.84
76519;BME280;67029;51.054;13.798;2024-03-23T12:59:59;99464.14;;;11.14;54.62
76519;BME280;67029;51.054;13.798;2024-03-23T13:02:29;99480.13;;;11.05;54.25
76519;BME280;67029;51.054;13.798;2024-03-23T13:04:59;99486.09;;;11.04;54.51
76519;BME280;67029;51.054;13.798;2024-03-23T13:07:29;99476.04;;;11.10;54.21
76519;BME280;67029;51.054;13.798;2024-03-23T13:09:59;99454.95;;;11.14;53.44
76519;BME280;67029;51.054;13.798;2024-03-23T13:12:30;99447.42;;;11.16;53.44
76519;BME280;67029;51.054;13.798;2024-03-23T13:15:00;99444.41;;;11.19;53.70
76519;BME280;67029;51.054;13.798;2024-03-23T13:17:30;99440.29;;;11.07;53.76
76519;BME280;67029;51.054;13.798;2024-03-23T13:20:00;99454.81;;;11.07;53.81
76519;BME280;67029;51.054;13.798;2024-03-23T13:22:30;99484.00;;;10.95;53.80
76519;BME280;67029;51.054;13.798;2024-03-23T13:25:00;99493.68;;;10.94;53.89
76519;BME280;67029;51.054;13.798;2024-03-23T13:27:30;99501.17;;;10.91;53.43
76519;BME280;67029;51.054;13.798;2024-03-23T13:30:00;99524.68;;;10.87;53.33
76519;BME280;67029;51.054;13.798;2024-03-23T13:32:33;99529.33;;;10.85;53.50
76519;BME280;67029;51.054;13.798;2024-03-23T13:35:00;99526.97;;;10.78;53.65
76519;BME280;67029;51.054;13.798;2024-03-23T13:37:31;99524.65;;;10.92;53.41
76519;BME280;67029;51.054;13.798;2024-03-23T13:40:00;99544.52;;;10.95;53.50
76519;BME280;67029;51.054;13.798;2024-03-23T13:42:30;99546.59;;;10.96;53.49
76519;BME280;67029;51.054;13.798;2024-03-23T13:45:00;99521.34;;;10.95;52.94
76519;BME280;67029;51.054;13.798;2024-03-23T13:47:30;99523.48;;;11.07;52.77
76519;BME280;67029;51.054;13.798;2024-03-23T13:50:00;99504.73;;;11.17;52.72
76519;BME280;67029;51.054;13.798;2024-03-23T13:52:31;99493.20;;;11.43;53.09
76519;BME280;67029;51.054;13.798;2024-03-23T13:55:01;99478.45;;;11.88;52.55
76519;BME280;67029;51.054;13.798;2024-03-23T13:57:31;99483.80;;;12.53;52.55